createdAt,value
2019-02-28T00:01:33.216Z,1.40
2019-02-28T00:04:00.980Z,1.07
2019-02-28T00:06:29.051Z,0.90
2019-02-28T00:08:56.807Z,0.97
2019-02-28T00:11:24.951Z,0.90
2019-02-28T00:13:55.821Z,0.80
2019-02-28T00:16:22.591Z,1.00
2019-02-28T00:18:50.677Z,1.00
2019-02-28T00:21:18.622Z,0.90
2019-02-28T00:23:46.471Z,1.07
2019-02-28T00:26:14.522Z,0.80
2019-02-28T00:28:42.371Z,0.87
2019-02-28T00:31:14.192Z,1.00
2019-02-28T00:33:40.240Z,0.83
2019-02-28T00:36:08.301Z,0.90
2019-02-28T00:38:36.263Z,0.90
2019-02-28T00:41:04.395Z,1.10
2019-02-28T00:43:32.263Z,1.10
2019-02-28T00:46:00.322Z,0.67
2019-02-28T00:48:28.388Z,0.80
2019-02-28T00:50:58.530Z,0.80
2019-02-28T00:53:26.467Z,0.50
2019-02-28T00:55:54.467Z,0.87
2019-02-28T00:58:22.546Z,0.80
2019-02-28T01:00:50.488Z,0.60
2019-02-28T01:03:18.645Z,0.57
2019-02-28T01:05:46.719Z,0.70
2019-02-28T01:08:14.572Z,0.50
2019-02-28T01:10:43.032Z,0.77
2019-02-28T01:13:10.891Z,0.60
2019-02-28T01:15:44.456Z,0.70
2019-02-28T01:18:08.700Z,1.23
2019-02-28T01:20:36.716Z,0.80
2019-02-28T01:23:04.554Z,0.80
2019-02-28T01:25:32.809Z,0.77
2019-02-28T01:28:00.868Z,0.60
2019-02-28T01:30:28.651Z,0.57
2019-02-28T01:32:56.720Z,0.90
2019-02-28T01:35:24.771Z,0.60
2019-02-28T01:37:53.062Z,0.70
2019-02-28T01:40:21.194Z,0.40
2019-02-28T01:42:53.985Z,0.67
2019-02-28T01:45:18.903Z,0.70
2019-02-28T01:47:46.667Z,0.60
2019-02-28T01:50:14.740Z,0.60
2019-02-28T01:52:45.937Z,0.40
2019-02-28T01:55:12.468Z,0.43
2019-02-28T01:57:43.786Z,0.50
2019-02-28T02:00:11.215Z,0.30
2019-02-28T02:02:39.475Z,0.40
2019-02-28T02:05:07.459Z,0.40
2019-02-28T02:07:35.624Z,0.40
2019-02-28T02:10:06.751Z,0.57
2019-02-28T02:12:34.677Z,0.60
2019-02-28T02:15:04.344Z,0.50
2019-02-28T02:17:35.444Z,0.43
2019-02-28T02:20:02.214Z,0.40
2019-02-28T02:22:30.121Z,0.60
2019-02-28T02:24:59.298Z,0.50
2019-02-28T02:27:28.041Z,0.40
2019-02-28T02:29:56.111Z,0.40
2019-02-28T02:32:24.177Z,0.60
2019-02-28T02:34:52.044Z,0.50
2019-02-28T02:37:20.029Z,0.40
2019-02-28T02:39:50.249Z,0.40
2019-02-28T02:42:17.759Z,0.60
2019-02-28T02:44:45.705Z,0.60
2019-02-28T02:47:13.838Z,0.40
2019-02-28T02:49:41.756Z,2.00
2019-02-28T02:52:09.677Z,0.50
2019-02-28T02:54:37.537Z,0.40
2019-02-28T02:57:05.535Z,0.40
2019-02-28T02:59:38.910Z,0.50
2019-02-28T03:02:03.235Z,0.40
2019-02-28T03:04:31.271Z,0.50
2019-02-28T03:06:59.349Z,0.43
2019-02-28T03:09:27.456Z,0.57
2019-02-28T03:11:57.674Z,0.40
2019-02-28T03:14:25.393Z,0.53
2019-02-28T03:16:53.237Z,0.43
2019-02-28T03:19:21.219Z,0.30
2019-02-28T03:21:52.617Z,0.40
2019-02-28T03:24:19.236Z,0.40
2019-02-28T03:26:47.322Z,0.23
2019-02-28T03:29:15.349Z,0.43
2019-02-28T03:31:55.032Z,0.30
2019-02-28T03:34:14.263Z,0.40
2019-02-28T03:36:42.624Z,0.50
2019-02-28T03:39:10.486Z,0.33
2019-02-28T03:41:38.447Z,0.50
2019-02-28T03:44:06.503Z,0.40
2019-02-28T03:46:34.539Z,0.47
2019-02-28T03:49:02.602Z,0.30
2019-02-28T03:51:30.672Z,0.40
2019-02-28T03:53:58.551Z,0.30
2019-02-28T03:56:26.597Z,0.30
2019-02-28T03:58:54.691Z,0.40
2019-02-28T04:01:22.454Z,0.40
2019-02-28T04:03:50.315Z,0.40
2019-02-28T04:06:18.164Z,0.20
2019-02-28T04:08:46.337Z,0.30
2019-02-28T04:11:14.416Z,0.70
2019-02-28T04:13:42.387Z,0.63
2019-02-28T04:16:10.243Z,0.50
2019-02-28T04:18:44.122Z,0.30
2019-02-28T04:21:10.159Z,0.30
2019-02-28T04:23:38.170Z,0.20
2019-02-28T04:26:06.157Z,1.03
2019-02-28T04:28:34.132Z,0.30
2019-02-28T04:31:02.362Z,0.37
2019-02-28T04:33:30.224Z,0.40
2019-02-28T04:36:00.392Z,0.30
2019-02-28T04:38:28.139Z,0.30
2019-02-28T04:40:58.767Z,0.30
2019-02-28T04:43:25.919Z,0.20
2019-02-28T04:45:54.080Z,0.33
2019-02-28T04:48:22.152Z,0.20
2019-02-28T04:50:49.996Z,0.10
2019-02-28T04:53:18.890Z,0.50
2019-02-28T04:55:47.943Z,0.20
2019-02-28T04:58:15.990Z,0.57
2019-02-28T05:00:44.063Z,0.30
2019-02-28T05:03:11.839Z,0.20
2019-02-28T05:05:39.799Z,0.20
2019-02-28T05:08:07.967Z,0.20
2019-02-28T05:10:35.949Z,0.33
2019-02-28T05:13:03.904Z,0.10
2019-02-28T05:15:37.520Z,0.27
2019-02-28T05:18:01.612Z,0.40
2019-02-28T05:20:29.877Z,0.30
2019-02-28T05:22:59.238Z,0.27
2019-02-28T05:25:27.696Z,0.20
2019-02-28T05:27:55.656Z,0.30
2019-02-28T05:30:23.618Z,0.30
2019-02-28T05:32:51.509Z,0.20
2019-02-28T05:35:22.499Z,0.27
2019-02-28T05:37:49.304Z,0.20
2019-02-28T05:40:17.240Z,0.20
2019-02-28T05:42:45.221Z,0.30
2019-02-28T05:45:14.718Z,0.10
2019-02-28T05:47:46.987Z,0.30
2019-02-28T05:50:16.849Z,0.30
2019-02-28T05:52:42.696Z,0.20
2019-02-28T05:55:10.667Z,0.47
2019-02-28T05:57:39.434Z,0.20
2019-02-28T06:00:08.868Z,0.10
2019-02-28T06:02:36.836Z,0.23
2019-02-28T06:05:05.069Z,0.20
2019-02-28T06:07:33.067Z,0.10
2019-02-28T06:10:00.850Z,0.27
2019-02-28T06:12:28.779Z,0.30
2019-02-28T06:15:02.210Z,0.20
2019-02-28T06:17:26.540Z,0.10
2019-02-28T06:19:54.354Z,0.30
2019-02-28T06:22:22.316Z,0.23
2019-02-28T06:24:50.296Z,0.27
2019-02-28T06:27:18.179Z,0.40
2019-02-28T06:29:46.407Z,0.20
2019-02-28T06:32:14.560Z,0.40
2019-02-28T06:34:43.084Z,0.20
2019-02-28T06:37:11.064Z,0.20
2019-02-28T06:39:39.042Z,0.30
2019-02-28T06:42:06.999Z,0.10
2019-02-28T06:44:34.971Z,0.33
2019-02-28T06:47:03.036Z,0.10
2019-02-28T06:49:31.105Z,0.20
2019-02-28T06:51:59.201Z,0.20
2019-02-28T06:54:27.298Z,0.10
2019-02-28T06:56:55.323Z,0.10
2019-02-28T06:59:23.563Z,0.20
2019-02-28T07:01:56.559Z,0.20
2019-02-28T07:04:21.116Z,0.50
2019-02-28T07:06:49.102Z,0.20
2019-02-28T07:09:17.155Z,0.10
2019-02-28T07:11:45.204Z,0.10
2019-02-28T07:14:13.974Z,0.27
2019-02-28T07:16:42.079Z,0.10
2019-02-28T07:19:10.123Z,0.23
2019-02-28T07:21:42.989Z,0.20
2019-02-28T07:24:08.017Z,0.20
2019-02-28T07:26:36.207Z,0.40
2019-02-28T07:29:03.999Z,0.47
2019-02-28T07:31:31.747Z,0.30
2019-02-28T07:33:59.697Z,0.40
2019-02-28T07:36:27.724Z,0.17
2019-02-28T07:38:57.710Z,0.30
2019-02-28T07:41:26.794Z,0.20
2019-02-28T07:43:55.419Z,0.20
2019-02-28T07:46:24.750Z,0.20
2019-02-28T07:48:52.739Z,0.37
2019-02-28T07:51:22.204Z,0.20
2019-02-28T07:53:50.340Z,0.30
2019-02-28T07:56:18.191Z,0.40
2019-02-28T07:58:46.249Z,0.30
2019-02-28T08:01:14.171Z,0.20
2019-02-28T08:03:43.375Z,0.50
2019-02-28T08:06:11.803Z,0.20
2019-02-28T08:08:39.572Z,0.47
2019-02-28T08:11:07.532Z,0.30
2019-02-28T08:13:37.859Z,0.23
2019-02-28T08:16:05.517Z,0.30
2019-02-28T08:18:33.380Z,0.40
2019-02-28T08:21:01.120Z,0.40
2019-02-28T08:23:30.225Z,0.30
2019-02-28T08:25:58.751Z,0.27
2019-02-28T08:28:29.499Z,0.40
2019-02-28T08:30:57.092Z,0.67
2019-02-28T08:33:24.955Z,0.20
2019-02-28T08:35:53.115Z,0.40
2019-02-28T08:38:21.291Z,0.30
2019-02-28T08:40:51.484Z,0.73
2019-02-28T08:43:26.855Z,0.20
2019-02-28T08:45:48.924Z,0.30
2019-02-28T08:48:16.892Z,0.40
2019-02-28T08:50:44.991Z,0.30
2019-02-28T08:53:15.384Z,0.40
2019-02-28T08:55:44.321Z,0.50
2019-02-28T08:58:12.616Z,0.43
2019-02-28T09:00:40.584Z,0.30
2019-02-28T09:03:08.728Z,0.47
2019-02-28T09:05:36.799Z,0.50
2019-02-28T09:08:04.845Z,0.30
2019-02-28T09:10:32.915Z,0.33
2019-02-28T09:13:00.959Z,0.30
2019-02-28T09:15:31.056Z,0.40
2019-02-28T09:17:59.639Z,0.50
2019-02-28T09:20:27.974Z,0.37
2019-02-28T09:23:01.497Z,0.40
2019-02-28T09:25:27.303Z,0.30
2019-02-28T09:27:55.183Z,0.40
2019-02-28T09:30:29.781Z,0.40
2019-02-28T09:32:57.823Z,0.50
2019-02-28T09:35:25.886Z,0.30
2019-02-28T09:37:53.955Z,0.30
2019-02-28T09:40:22.023Z,0.30
2019-02-28T09:42:51.253Z,0.40
2019-02-28T09:45:19.968Z,0.40
2019-02-28T09:47:48.032Z,0.40
2019-02-28T09:50:19.457Z,0.40
2019-02-28T09:52:46.639Z,0.40
2019-02-28T09:55:15.912Z,0.30
2019-02-28T09:57:43.772Z,0.30
2019-02-28T10:00:13.072Z,0.20
2019-02-28T10:02:43.909Z,0.50
2019-02-28T10:05:11.773Z,0.40
2019-02-28T10:07:40.032Z,0.30
2019-02-28T10:10:09.641Z,0.30
2019-02-28T10:12:39.481Z,0.30
2019-02-28T10:15:08.366Z,0.37
2019-02-28T10:17:36.293Z,0.50
2019-02-28T10:20:07.283Z,0.30
2019-02-28T10:22:35.441Z,0.30
2019-02-28T10:25:06.474Z,0.37
2019-02-28T10:27:33.773Z,0.43
2019-02-28T10:30:01.835Z,0.40
2019-02-28T10:32:29.703Z,0.40
2019-02-28T10:34:58.348Z,0.40
2019-02-28T10:37:27.392Z,0.30
2019-02-28T10:39:55.347Z,0.50
2019-02-28T10:42:23.389Z,0.40
2019-02-28T10:44:51.563Z,0.37
2019-02-28T10:47:19.640Z,0.20
2019-02-28T10:49:47.583Z,0.30
2019-02-28T10:52:15.551Z,0.40
2019-02-28T10:54:48.384Z,0.20
2019-02-28T10:57:13.409Z,0.30
2019-02-28T10:59:41.492Z,0.40
2019-02-28T11:02:13.520Z,0.30
2019-02-28T11:04:43.824Z,0.37
2019-02-28T11:07:10.248Z,0.20
2019-02-28T11:09:38.449Z,0.40
2019-02-28T11:12:06.705Z,0.40
2019-02-28T11:14:35.453Z,0.30
2019-02-28T11:17:04.485Z,0.30
2019-02-28T11:19:32.360Z,0.80
2019-02-28T11:22:01.611Z,0.30
2019-02-28T11:24:30.179Z,0.30
2019-02-28T11:26:58.236Z,0.40
2019-02-28T11:29:26.299Z,0.50
2019-02-28T11:31:55.102Z,0.40
2019-02-28T11:34:23.476Z,0.30
2019-02-28T11:36:51.492Z,0.40
2019-02-28T11:39:19.556Z,0.40
2019-02-28T11:41:49.285Z,0.40
2019-02-28T11:44:17.459Z,0.40
2019-02-28T11:46:46.018Z,0.43
2019-02-28T11:49:14.179Z,0.50
2019-02-28T11:51:42.331Z,0.50
2019-02-28T11:54:12.298Z,0.40
2019-02-28T11:56:40.260Z,0.40
2019-02-28T11:59:08.367Z,0.50
2019-02-28T12:01:36.422Z,0.43
2019-02-28T12:04:04.283Z,0.80
2019-02-28T12:06:32.281Z,0.40
2019-02-28T12:09:01.271Z,0.30
2019-02-28T12:11:29.447Z,0.40
2019-02-28T12:13:57.416Z,0.70
2019-02-28T12:16:25.524Z,0.53
2019-02-28T12:18:53.493Z,0.60
2019-02-28T12:21:21.608Z,0.50
2019-02-28T12:23:49.685Z,0.70
2019-02-28T12:26:18.835Z,0.60
2019-02-28T12:28:46.989Z,0.50
2019-02-28T12:31:15.334Z,0.70
2019-02-28T12:33:43.509Z,0.50
2019-02-28T12:36:14.396Z,0.50
2019-02-28T12:38:41.440Z,0.50
2019-02-28T12:41:09.509Z,0.60
2019-02-28T12:43:40.626Z,0.60
2019-02-28T12:46:07.636Z,0.60
2019-02-28T12:48:35.603Z,0.60
2019-02-28T12:51:05.394Z,0.60
2019-02-28T12:53:33.593Z,0.63
2019-02-28T12:56:01.642Z,0.67
2019-02-28T12:58:37.208Z,0.50
2019-02-28T13:01:00.014Z,0.80
2019-02-28T13:03:31.853Z,0.70
2019-02-28T13:06:02.346Z,0.70
2019-02-28T13:08:30.304Z,0.60
2019-02-28T13:11:03.154Z,0.80
2019-02-28T13:13:28.959Z,0.73
2019-02-28T13:15:57.210Z,0.77
2019-02-28T13:18:25.483Z,0.83
2019-02-28T13:20:53.648Z,0.60
2019-02-28T13:23:22.758Z,0.60
2019-02-28T13:25:50.944Z,0.93
2019-02-28T13:28:22.466Z,0.70
2019-02-28T13:30:50.024Z,0.70
2019-02-28T13:33:18.634Z,0.70
2019-02-28T13:35:47.640Z,0.63
2019-02-28T13:38:19.114Z,0.73
2019-02-28T13:40:45.941Z,0.80
2019-02-28T13:43:19.874Z,0.67
2019-02-28T13:45:43.899Z,0.80
2019-02-28T13:48:11.957Z,0.77
2019-02-28T13:50:39.888Z,0.80
2019-02-28T13:53:17.556Z,0.70
2019-02-28T13:55:38.675Z,0.50
2019-02-28T13:58:06.885Z,0.70
2019-02-28T14:00:34.962Z,0.80
2019-02-28T14:03:08.940Z,0.60
2019-02-28T14:05:38.706Z,0.70
2019-02-28T14:08:09.585Z,0.50
2019-02-28T14:10:33.565Z,0.70
2019-02-28T14:13:02.792Z,1.10
2019-02-28T14:15:35.277Z,0.70
2019-02-28T14:18:03.164Z,0.80
2019-02-28T14:20:31.131Z,0.70
2019-02-28T14:22:59.132Z,0.77
2019-02-28T14:25:27.251Z,1.00
2019-02-28T14:27:56.966Z,0.80
2019-02-28T14:30:25.522Z,0.70
2019-02-28T14:32:53.952Z,0.90
2019-02-28T14:35:23.052Z,1.40
2019-02-28T14:37:51.794Z,0.70
2019-02-28T14:40:21.235Z,0.90
2019-02-28T14:42:49.224Z,0.97
2019-02-28T14:45:17.544Z,0.80
2019-02-28T14:47:45.704Z,0.80
2019-02-28T14:50:15.485Z,0.80
2019-02-28T14:52:43.600Z,0.77
2019-02-28T14:55:12.967Z,0.90
2019-02-28T14:57:40.963Z,0.80
2019-02-28T15:00:10.752Z,0.83
2019-02-28T15:02:38.645Z,0.73
2019-02-28T15:05:08.687Z,0.83
2019-02-28T15:07:38.729Z,0.70
2019-02-28T15:10:09.057Z,0.80
2019-02-28T15:12:37.156Z,0.93
2019-02-28T15:15:06.009Z,0.70
2019-02-28T15:17:33.917Z,0.80
2019-02-28T15:20:01.905Z,0.63
2019-02-28T15:22:29.748Z,0.93
2019-02-28T15:24:58.514Z,0.70
2019-02-28T15:27:26.625Z,0.80
2019-02-28T15:29:55.490Z,0.90
2019-02-28T15:32:24.119Z,0.90
2019-02-28T15:34:52.190Z,0.80
2019-02-28T15:37:20.215Z,0.80
2019-02-28T15:39:49.839Z,0.70
2019-02-28T15:42:18.205Z,0.70
2019-02-28T15:44:46.055Z,0.80
2019-02-28T15:47:14.000Z,0.80
2019-02-28T15:49:42.606Z,0.83
2019-02-28T15:52:10.548Z,0.67
2019-02-28T15:54:38.591Z,0.80
2019-02-28T15:57:06.697Z,0.87
2019-02-28T15:59:34.748Z,0.90
2019-02-28T16:02:03.607Z,0.80
2019-02-28T16:04:32.668Z,0.80
2019-02-28T16:07:00.631Z,0.60
2019-02-28T16:09:28.932Z,0.70
2019-02-28T16:11:56.886Z,0.80
2019-02-28T16:14:24.955Z,0.83
2019-02-28T16:16:52.841Z,0.70
2019-02-28T16:19:21.959Z,0.70
2019-02-28T16:21:50.462Z,0.80
2019-02-28T16:24:19.611Z,0.80
2019-02-28T16:26:47.471Z,0.70
2019-02-28T16:29:20.390Z,0.80
2019-02-28T16:31:45.175Z,0.60
2019-02-28T16:34:13.230Z,0.90
2019-02-28T16:36:41.296Z,0.70
2019-02-28T16:39:09.560Z,0.90
2019-02-28T16:41:37.642Z,0.60
2019-02-28T16:44:05.844Z,0.87
2019-02-28T16:46:33.896Z,0.70
2019-02-28T16:49:01.952Z,0.80
2019-02-28T16:51:30.277Z,0.70
2019-02-28T16:53:58.422Z,0.87
2019-02-28T16:56:26.498Z,0.90
2019-02-28T16:58:57.320Z,0.70
2019-02-28T17:01:24.160Z,0.93
2019-02-28T17:03:52.215Z,0.77
2019-02-28T17:06:20.272Z,0.90
2019-02-28T17:08:56.932Z,0.90
2019-02-28T17:11:24.875Z,0.80
2019-02-28T17:14:10.284Z,0.83
2019-02-28T17:17:12.573Z,0.90
2019-02-28T17:19:40.840Z,0.70
2019-02-28T17:22:08.883Z,0.80
2019-02-28T17:24:36.778Z,0.93
2019-02-28T17:27:24.728Z,0.90
2019-02-28T17:30:12.259Z,0.73
2019-02-28T17:32:40.328Z,0.70
2019-02-28T17:35:08.403Z,0.80
2019-02-28T17:37:36.352Z,0.63
2019-02-28T17:40:04.651Z,0.47
2019-02-28T17:42:32.510Z,0.53
2019-02-28T17:45:15.555Z,0.60
2019-02-28T17:47:49.518Z,0.50
2019-02-28T17:50:23.252Z,0.43
2019-02-28T17:53:26.006Z,0.67
2019-02-28T17:56:23.014Z,0.50
2019-02-28T17:59:07.780Z,0.60
2019-02-28T18:01:58.288Z,0.60
2019-02-28T18:04:51.634Z,0.70
2019-02-28T18:07:51.472Z,1.00
2019-02-28T18:10:55.805Z,0.90
2019-02-28T18:13:42.936Z,1.13
2019-02-28T18:16:33.288Z,0.73
2019-02-28T18:19:33.055Z,0.80
2019-02-28T18:22:08.923Z,0.90
2019-02-28T18:25:17.231Z,0.60
2019-02-28T18:28:01.042Z,0.90
2019-02-28T18:30:57.593Z,0.97
2019-02-28T18:33:25.534Z,0.90
2019-02-28T18:35:55.765Z,0.60
2019-02-28T18:38:23.768Z,0.73
2019-02-28T18:40:51.668Z,0.57
2019-02-28T18:43:19.582Z,0.87
2019-02-28T18:45:47.661Z,0.83
2019-02-28T18:48:20.091Z,0.83
2019-02-28T18:50:48.243Z,0.73
2019-02-28T18:53:16.318Z,0.60
2019-02-28T18:55:44.280Z,0.87
2019-02-28T18:58:12.360Z,0.70
2019-02-28T19:00:40.408Z,0.80
2019-02-28T19:03:08.479Z,0.60
2019-02-28T19:05:36.425Z,0.97
2019-02-28T19:08:04.430Z,1.27
2019-02-28T19:10:32.440Z,1.23
2019-02-28T19:13:02.082Z,1.37
2019-02-28T19:15:30.065Z,1.10
2019-02-28T19:17:58.157Z,1.00
2019-02-28T19:20:26.224Z,0.93
2019-02-28T19:22:54.197Z,1.03
2019-02-28T19:25:22.528Z,1.00
2019-02-28T19:27:50.516Z,1.00
2019-02-28T19:30:18.390Z,0.87
2019-02-28T19:32:46.260Z,1.37
2019-02-28T19:35:14.131Z,1.13
2019-02-28T19:37:42.048Z,1.20
2019-02-28T19:40:10.016Z,0.90
2019-02-28T19:42:38.111Z,1.00
2019-02-28T19:45:07.612Z,0.87
2019-02-28T19:47:35.617Z,0.90
2019-02-28T19:50:04.560Z,1.00
2019-02-28T19:52:32.316Z,0.87
2019-02-28T19:55:00.413Z,1.00
2019-02-28T19:57:28.579Z,0.77
2019-02-28T19:59:56.660Z,1.00
2019-02-28T20:02:24.751Z,1.20
2019-02-28T20:08:22.937Z,1.10
2019-02-28T20:10:51.376Z,1.37
2019-02-28T20:13:19.584Z,1.07
2019-02-28T20:15:47.699Z,0.90
2019-02-28T20:18:16.998Z,1.00
2019-02-28T20:20:45.192Z,1.07
2019-02-28T20:23:13.160Z,1.00
2019-02-28T20:25:41.425Z,1.10
2019-02-28T20:28:09.444Z,1.00
2019-02-28T20:30:37.446Z,1.10
2019-02-28T20:33:05.516Z,1.10
2019-02-28T20:35:33.627Z,2.00
2019-02-28T20:38:01.616Z,2.40
2019-02-28T20:40:29.691Z,2.10
2019-02-28T20:42:57.562Z,2.50
2019-02-28T20:45:25.495Z,2.10
2019-02-28T20:47:53.398Z,2.00
2019-02-28T20:50:23.194Z,2.10
2019-02-28T20:52:51.236Z,2.07
2019-02-28T20:55:19.145Z,1.50
2019-02-28T20:57:47.959Z,1.73
2019-02-28T21:00:16.877Z,1.10
2019-02-28T21:02:45.044Z,0.93
2019-02-28T21:05:13.182Z,1.00
2019-02-28T21:07:41.301Z,1.20
2019-02-28T21:10:09.453Z,0.93
2019-02-28T21:12:37.364Z,1.20
2019-02-28T21:15:05.427Z,1.20
2019-02-28T21:17:33.400Z,1.00
2019-02-28T21:20:01.565Z,1.40
2019-02-28T21:22:29.676Z,1.13
2019-02-28T21:24:57.756Z,1.00
2019-02-28T21:27:25.848Z,1.07
2019-02-28T21:29:53.967Z,1.30
2019-02-28T21:32:21.917Z,1.00
2019-02-28T21:34:50.009Z,0.90
2019-02-28T21:37:18.069Z,0.90
2019-02-28T21:39:46.072Z,1.10
2019-02-28T21:42:14.200Z,1.33
2019-02-28T21:44:42.316Z,0.87
2019-02-28T21:47:10.420Z,1.07
2019-02-28T21:49:38.218Z,0.90
2019-02-28T21:52:06.242Z,0.90
2019-02-28T21:54:34.291Z,0.80
2019-02-28T21:57:02.399Z,0.70
2019-02-28T21:59:30.376Z,0.90
2019-02-28T22:01:58.233Z,0.83
2019-02-28T22:04:26.208Z,0.60
2019-02-28T22:06:54.340Z,0.60
2019-02-28T22:09:22.427Z,0.73
2019-02-28T22:11:50.415Z,0.60
2019-02-28T22:14:18.524Z,0.90
2019-02-28T22:16:46.593Z,0.90
2019-02-28T22:19:14.808Z,0.90
2019-02-28T22:21:42.780Z,0.90
2019-02-28T22:24:10.752Z,1.10
2019-02-28T22:26:38.835Z,1.30
2019-02-28T22:29:06.931Z,1.40
2019-02-28T22:31:57.594Z,1.57
2019-02-28T22:34:51.151Z,1.23
2019-02-28T22:37:19.048Z,1.10
2019-02-28T22:39:46.810Z,1.43
2019-02-28T22:42:22.171Z,1.00
2019-02-28T22:44:44.732Z,1.20
2019-02-28T22:47:12.948Z,1.10
2019-02-28T22:49:40.934Z,0.83
2019-02-28T22:52:09.036Z,1.10
2019-02-28T22:54:37.104Z,1.10
2019-02-28T22:57:05.176Z,0.97
2019-02-28T22:59:33.264Z,1.17
2019-02-28T23:02:01.432Z,1.10
2019-02-28T23:04:29.748Z,1.03
2019-02-28T23:06:58.879Z,0.83
2019-02-28T23:09:27.040Z,0.87
2019-02-28T23:11:54.831Z,0.80
2019-02-28T23:14:22.992Z,0.90
2019-02-28T23:16:51.021Z,0.97
2019-02-28T23:19:18.984Z,0.80
2019-02-28T23:21:47.024Z,0.83
2019-02-28T23:24:14.896Z,0.80
2019-02-28T23:27:01.231Z,0.63
2019-02-28T23:29:29.096Z,0.70
2019-02-28T23:32:25.404Z,0.60
2019-02-28T23:34:54.081Z,0.83
2019-02-28T23:37:22.146Z,0.80
2019-02-28T23:39:50.319Z,0.63
2019-02-28T23:42:18.319Z,0.83
2019-02-28T23:44:46.392Z,0.80
2019-02-28T23:47:14.464Z,0.70
2019-02-28T23:49:42.545Z,0.80
2019-02-28T23:52:10.652Z,0.50
2019-02-28T23:54:38.716Z,0.57
2019-02-28T23:57:08.908Z,0.73
2019-02-28T23:59:36.782Z,0.57
